sensor_id;sensor_type;location;lat;lon;timestamp;P1;durP1;ratioP1;P2;durP2;ratioP2
75054;SDS011;63636;44.746;10.488;2023-03-01T00:01:32;31.48;;;16.65;;
75054;SDS011;63636;44.746;10.488;2023-03-01T00:03:58;31.58;;;17.15;;
75054;SDS011;63636;44.746;10.488;2023-03-01T00:06:24;34.92;;;17.27;;
75054;SDS011;63636;44.746;10.488;2023-03-01T00:08:50;32.13;;;15.90;;
75054;SDS011;63636;44.746;10.488;2023-03-01T00:11:17;30.08;;;16.05;;
75054;SDS011;63636;44.746;10.488;2023-03-01T00:13:43;34.20;;;16.52;;
75054;SDS011;63636;44.746;10.488;2023-03-01T00:16:16;31.60;;;16.92;;
75054;SDS011;63636;44.746;10.488;2023-03-01T00:18:42;35.28;;;16.98;;
75054;SDS011;63636;44.746;10.488;2023-03-01T00:21:08;33.83;;;17.60;;
75054;SDS011;63636;44.746;10.488;2023-03-01T00:23:33;35.47;;;17.33;;
75054;SDS011;63636;44.746;10.488;2023-03-01T00:25:59;32.60;;;16.98;;
75054;SDS011;63636;44.746;10.488;2023-03-01T00:28:25;33.25;;;16.83;;
75054;SDS011;63636;44.746;10.488;2023-03-01T00:30:50;34.75;;;17.40;;
75054;SDS011;63636;44.746;10.488;2023-03-01T00:33:16;32.75;;;16.40;;
75054;SDS011;63636;44.746;10.488;2023-03-01T00:35:42;33.45;;;16.95;;
75054;SDS011;63636;44.746;10.488;2023-03-01T00:38:07;33.00;;;16.70;;
75054;SDS011;63636;44.746;10.488;2023-03-01T00:40:34;31.85;;;16.20;;
75054;SDS011;63636;44.746;10.488;2023-03-01T00:42:59;31.30;;;14.88;;
75054;SDS011;63636;44.746;10.488;2023-03-01T00:45:25;33.83;;;15.48;;
75054;SDS011;63636;44.746;10.488;2023-03-01T00:47:51;29.58;;;14.80;;
75054;SDS011;63636;44.746;10.488;2023-03-01T00:50:17;29.92;;;15.05;;
75054;SDS011;63636;44.746;10.488;2023-03-01T00:52:43;29.20;;;14.75;;
75054;SDS011;63636;44.746;10.488;2023-03-01T00:55:11;29.20;;;15.13;;
75054;SDS011;63636;44.746;10.488;2023-03-01T00:57:37;28.90;;;14.38;;
75054;SDS011;63636;44.746;10.488;2023-03-01T01:00:04;27.42;;;13.50;;
75054;SDS011;63636;44.746;10.488;2023-03-01T01:02:31;27.33;;;14.00;;
75054;SDS011;63636;44.746;10.488;2023-03-01T01:04:57;28.77;;;13.57;;
75054;SDS011;63636;44.746;10.488;2023-03-01T01:07:22;28.55;;;14.23;;
75054;SDS011;63636;44.746;10.488;2023-03-01T01:09:48;24.45;;;12.93;;
75054;SDS011;63636;44.746;10.488;2023-03-01T01:12:13;25.95;;;13.02;;
75054;SDS011;63636;44.746;10.488;2023-03-01T01:14:39;26.65;;;13.88;;
75054;SDS011;63636;44.746;10.488;2023-03-01T01:17:05;28.50;;;13.77;;
75054;SDS011;63636;44.746;10.488;2023-03-01T01:19:33;25.73;;;13.05;;
75054;SDS011;63636;44.746;10.488;2023-03-01T01:21:59;26.05;;;12.95;;
75054;SDS011;63636;44.746;10.488;2023-03-01T01:24:24;24.55;;;13.23;;
75054;SDS011;63636;44.746;10.488;2023-03-01T01:26:50;28.25;;;13.57;;
75054;SDS011;63636;44.746;10.488;2023-03-01T01:29:16;26.73;;;13.43;;
75054;SDS011;63636;44.746;10.488;2023-03-01T01:31:41;26.60;;;13.52;;
75054;SDS011;63636;44.746;10.488;2023-03-01T01:34:09;29.52;;;14.05;;
75054;SDS011;63636;44.746;10.488;2023-03-01T01:36:37;29.88;;;14.82;;
75054;SDS011;63636;44.746;10.488;2023-03-01T01:39:03;26.48;;;14.00;;
75054;SDS011;63636;44.746;10.488;2023-03-01T01:41:29;29.23;;;13.70;;
75054;SDS011;63636;44.746;10.488;2023-03-01T01:46:44;26.92;;;13.30;;
75054;SDS011;63636;44.746;10.488;2023-03-01T01:49:19;22.98;;;12.27;;
75054;SDS011;63636;44.746;10.488;2023-03-01T01:51:47;24.70;;;12.18;;
75054;SDS011;63636;44.746;10.488;2023-03-01T01:57:00;23.13;;;12.13;;
75054;SDS011;63636;44.746;10.488;2023-03-01T01:59:28;25.88;;;12.77;;
75054;SDS011;63636;44.746;10.488;2023-03-01T02:01:54;28.13;;;13.20;;
75054;SDS011;63636;44.746;10.488;2023-03-01T02:04:20;25.52;;;13.13;;
75054;SDS011;63636;44.746;10.488;2023-03-01T02:06:48;24.90;;;13.18;;
75054;SDS011;63636;44.746;10.488;2023-03-01T02:09:16;26.60;;;13.32;;
75054;SDS011;63636;44.746;10.488;2023-03-01T02:11:43;24.50;;;12.93;;
75054;SDS011;63636;44.746;10.488;2023-03-01T02:14:09;25.27;;;13.73;;
75054;SDS011;63636;44.746;10.488;2023-03-01T02:16:35;25.92;;;13.02;;
75054;SDS011;63636;44.746;10.488;2023-03-01T02:19:00;26.38;;;14.07;;
75054;SDS011;63636;44.746;10.488;2023-03-01T02:23:55;25.48;;;13.77;;
75054;SDS011;63636;44.746;10.488;2023-03-01T02:28:50;25.25;;;13.50;;
75054;SDS011;63636;44.746;10.488;2023-03-01T02:31:17;26.58;;;13.73;;
75054;SDS011;63636;44.746;10.488;2023-03-01T02:34:03;26.73;;;13.35;;
75054;SDS011;63636;44.746;10.488;2023-03-01T02:36:37;25.35;;;13.57;;
75054;SDS011;63636;44.746;10.488;2023-03-01T02:39:04;28.75;;;13.60;;
75054;SDS011;63636;44.746;10.488;2023-03-01T02:41:32;26.85;;;13.88;;
75054;SDS011;63636;44.746;10.488;2023-03-01T02:44:00;25.25;;;14.00;;
75054;SDS011;63636;44.746;10.488;2023-03-01T02:46:26;26.40;;;12.73;;
75054;SDS011;63636;44.746;10.488;2023-03-01T02:48:56;27.25;;;13.00;;
75054;SDS011;63636;44.746;10.488;2023-03-01T02:56:32;24.38;;;11.95;;
75054;SDS011;63636;44.746;10.488;2023-03-01T02:58:58;27.20;;;12.07;;
75054;SDS011;63636;44.746;10.488;2023-03-01T03:01:27;24.58;;;12.98;;
75054;SDS011;63636;44.746;10.488;2023-03-01T03:04:07;25.00;;;12.32;;
75054;SDS011;63636;44.746;10.488;2023-03-01T03:06:33;24.90;;;13.02;;
75054;SDS011;63636;44.746;10.488;2023-03-01T03:08:59;24.60;;;11.18;;
75054;SDS011;63636;44.746;10.488;2023-03-01T03:11:25;24.15;;;11.35;;
75054;SDS011;63636;44.746;10.488;2023-03-01T03:13:51;25.42;;;11.98;;
75054;SDS011;63636;44.746;10.488;2023-03-01T03:16:18;26.88;;;13.07;;
75054;SDS011;63636;44.746;10.488;2023-03-01T03:18:44;25.33;;;11.27;;
75054;SDS011;63636;44.746;10.488;2023-03-01T03:21:10;27.02;;;12.52;;
75054;SDS011;63636;44.746;10.488;2023-03-01T03:23:36;26.45;;;12.38;;
75054;SDS011;63636;44.746;10.488;2023-03-01T03:26:02;26.38;;;12.57;;
75054;SDS011;63636;44.746;10.488;2023-03-01T03:28:33;24.77;;;12.10;;
75054;SDS011;63636;44.746;10.488;2023-03-01T03:30:59;24.45;;;11.43;;
75054;SDS011;63636;44.746;10.488;2023-03-01T03:33:29;25.85;;;12.38;;
75054;SDS011;63636;44.746;10.488;2023-03-01T03:35:54;25.75;;;12.45;;
75054;SDS011;63636;44.746;10.488;2023-03-01T03:38:23;24.73;;;11.50;;
75054;SDS011;63636;44.746;10.488;2023-03-01T03:40:50;25.80;;;12.48;;
75054;SDS011;63636;44.746;10.488;2023-03-01T03:43:17;23.67;;;12.43;;
75054;SDS011;63636;44.746;10.488;2023-03-01T03:45:47;26.35;;;12.85;;
75054;SDS011;63636;44.746;10.488;2023-03-01T03:48:13;26.20;;;12.70;;
75054;SDS011;63636;44.746;10.488;2023-03-01T03:50:39;24.38;;;12.40;;
75054;SDS011;63636;44.746;10.488;2023-03-01T03:53:06;27.35;;;12.18;;
75054;SDS011;63636;44.746;10.488;2023-03-01T03:55:32;21.38;;;10.65;;
75054;SDS011;63636;44.746;10.488;2023-03-01T03:57:59;25.25;;;11.55;;
75054;SDS011;63636;44.746;10.488;2023-03-01T04:00:27;23.35;;;11.52;;
75054;SDS011;63636;44.746;10.488;2023-03-01T04:02:53;24.98;;;12.38;;
75054;SDS011;63636;44.746;10.488;2023-03-01T04:05:21;26.30;;;12.70;;
75054;SDS011;63636;44.746;10.488;2023-03-01T04:07:50;23.20;;;11.35;;
75054;SDS011;63636;44.746;10.488;2023-03-01T04:10:27;25.67;;;12.48;;
75054;SDS011;63636;44.746;10.488;2023-03-01T04:12:52;25.15;;;12.15;;
75054;SDS011;63636;44.746;10.488;2023-03-01T04:15:18;25.30;;;12.70;;
75054;SDS011;63636;44.746;10.488;2023-03-01T04:17:44;23.90;;;12.32;;
75054;SDS011;63636;44.746;10.488;2023-03-01T04:20:11;24.65;;;12.55;;
75054;SDS011;63636;44.746;10.488;2023-03-01T04:22:38;25.33;;;12.52;;
75054;SDS011;63636;44.746;10.488;2023-03-01T04:25:04;30.00;;;13.02;;
75054;SDS011;63636;44.746;10.488;2023-03-01T04:27:34;27.00;;;12.88;;
75054;SDS011;63636;44.746;10.488;2023-03-01T04:30:00;25.52;;;12.35;;
75054;SDS011;63636;44.746;10.488;2023-03-01T04:32:26;24.95;;;12.05;;
75054;SDS011;63636;44.746;10.488;2023-03-01T04:34:52;26.50;;;12.88;;
75054;SDS011;63636;44.746;10.488;2023-03-01T04:37:17;23.48;;;12.30;;
75054;SDS011;63636;44.746;10.488;2023-03-01T04:39:43;26.85;;;12.90;;
75054;SDS011;63636;44.746;10.488;2023-03-01T04:42:12;25.15;;;12.63;;
75054;SDS011;63636;44.746;10.488;2023-03-01T04:44:38;25.38;;;12.75;;
75054;SDS011;63636;44.746;10.488;2023-03-01T04:47:03;23.58;;;12.43;;
75054;SDS011;63636;44.746;10.488;2023-03-01T04:49:29;27.20;;;13.25;;
75054;SDS011;63636;44.746;10.488;2023-03-01T04:51:55;22.98;;;12.20;;
75054;SDS011;63636;44.746;10.488;2023-03-01T04:54:21;24.25;;;12.45;;
75054;SDS011;63636;44.746;10.488;2023-03-01T04:56:46;28.10;;;13.10;;
75054;SDS011;63636;44.746;10.488;2023-03-01T04:59:12;28.00;;;12.48;;
75054;SDS011;63636;44.746;10.488;2023-03-01T05:01:38;26.98;;;13.35;;
75054;SDS011;63636;44.746;10.488;2023-03-01T05:04:04;24.45;;;12.63;;
75054;SDS011;63636;44.746;10.488;2023-03-01T05:06:30;24.10;;;12.57;;
75054;SDS011;63636;44.746;10.488;2023-03-01T05:08:56;25.45;;;13.40;;
75054;SDS011;63636;44.746;10.488;2023-03-01T05:11:22;24.77;;;12.23;;
75054;SDS011;63636;44.746;10.488;2023-03-01T05:13:47;25.05;;;12.55;;
75054;SDS011;63636;44.746;10.488;2023-03-01T05:16:15;25.10;;;12.43;;
75054;SDS011;63636;44.746;10.488;2023-03-01T05:18:42;25.15;;;12.27;;
75054;SDS011;63636;44.746;10.488;2023-03-01T05:21:09;26.10;;;13.13;;
75054;SDS011;63636;44.746;10.488;2023-03-01T05:23:35;24.92;;;12.25;;
75054;SDS011;63636;44.746;10.488;2023-03-01T05:26:02;24.92;;;12.68;;
75054;SDS011;63636;44.746;10.488;2023-03-01T05:28:29;24.50;;;12.75;;
75054;SDS011;63636;44.746;10.488;2023-03-01T05:30:55;23.98;;;12.65;;
75054;SDS011;63636;44.746;10.488;2023-03-01T05:33:22;29.30;;;13.70;;
75054;SDS011;63636;44.746;10.488;2023-03-01T05:35:48;26.67;;;13.20;;
75054;SDS011;63636;44.746;10.488;2023-03-01T05:38:14;26.60;;;13.50;;
75054;SDS011;63636;44.746;10.488;2023-03-01T05:40:41;27.77;;;12.93;;
75054;SDS011;63636;44.746;10.488;2023-03-01T05:43:06;31.17;;;13.70;;
75054;SDS011;63636;44.746;10.488;2023-03-01T05:45:32;27.02;;;12.68;;
75054;SDS011;63636;44.746;10.488;2023-03-01T05:47:58;26.48;;;13.13;;
75054;SDS011;63636;44.746;10.488;2023-03-01T05:50:25;23.40;;;12.95;;
75054;SDS011;63636;44.746;10.488;2023-03-01T05:52:56;30.42;;;12.98;;
75054;SDS011;63636;44.746;10.488;2023-03-01T05:55:22;27.77;;;13.55;;
75054;SDS011;63636;44.746;10.488;2023-03-01T05:57:48;29.55;;;13.85;;
75054;SDS011;63636;44.746;10.488;2023-03-01T06:00:16;26.65;;;13.30;;
75054;SDS011;63636;44.746;10.488;2023-03-01T06:02:41;29.30;;;12.63;;
75054;SDS011;63636;44.746;10.488;2023-03-01T06:05:07;26.40;;;13.10;;
75054;SDS011;63636;44.746;10.488;2023-03-01T06:07:34;25.98;;;13.30;;
75054;SDS011;63636;44.746;10.488;2023-03-01T06:10:00;27.50;;;12.60;;
75054;SDS011;63636;44.746;10.488;2023-03-01T06:12:25;26.77;;;13.15;;
75054;SDS011;63636;44.746;10.488;2023-03-01T06:14:51;26.15;;;13.13;;
75054;SDS011;63636;44.746;10.488;2023-03-01T06:20:34;25.88;;;12.35;;
75054;SDS011;63636;44.746;10.488;2023-03-01T06:23:00;24.80;;;11.32;;
75054;SDS011;63636;44.746;10.488;2023-03-01T06:25:26;24.58;;;12.50;;
75054;SDS011;63636;44.746;10.488;2023-03-01T06:27:52;26.98;;;11.90;;
75054;SDS011;63636;44.746;10.488;2023-03-01T06:30:18;27.90;;;13.25;;
75054;SDS011;63636;44.746;10.488;2023-03-01T06:32:44;24.50;;;12.18;;
75054;SDS011;63636;44.746;10.488;2023-03-01T06:35:10;25.13;;;12.82;;
75054;SDS011;63636;44.746;10.488;2023-03-01T06:37:36;25.67;;;12.35;;
75054;SDS011;63636;44.746;10.488;2023-03-01T06:40:02;25.75;;;12.27;;
75054;SDS011;63636;44.746;10.488;2023-03-01T06:42:34;26.30;;;12.73;;
75054;SDS011;63636;44.746;10.488;2023-03-01T06:44:59;23.63;;;12.10;;
75054;SDS011;63636;44.746;10.488;2023-03-01T06:47:25;24.83;;;12.35;;
75054;SDS011;63636;44.746;10.488;2023-03-01T06:49:50;25.48;;;12.48;;
75054;SDS011;63636;44.746;10.488;2023-03-01T06:52:16;23.08;;;11.48;;
75054;SDS011;63636;44.746;10.488;2023-03-01T06:54:46;24.17;;;11.85;;
75054;SDS011;63636;44.746;10.488;2023-03-01T06:57:11;24.42;;;11.90;;
75054;SDS011;63636;44.746;10.488;2023-03-01T06:59:37;22.23;;;10.30;;
75054;SDS011;63636;44.746;10.488;2023-03-01T07:02:02;21.17;;;9.88;;
75054;SDS011;63636;44.746;10.488;2023-03-01T07:04:28;19.00;;;9.80;;
75054;SDS011;63636;44.746;10.488;2023-03-01T07:06:56;21.77;;;9.65;;
75054;SDS011;63636;44.746;10.488;2023-03-01T07:09:22;22.00;;;10.85;;
75054;SDS011;63636;44.746;10.488;2023-03-01T07:11:48;22.20;;;10.07;;
75054;SDS011;63636;44.746;10.488;2023-03-01T07:14:14;20.33;;;10.70;;
75054;SDS011;63636;44.746;10.488;2023-03-01T07:16:40;21.95;;;10.52;;
75054;SDS011;63636;44.746;10.488;2023-03-01T07:19:05;24.08;;;10.70;;
75054;SDS011;63636;44.746;10.488;2023-03-01T07:21:31;19.35;;;9.52;;
75054;SDS011;63636;44.746;10.488;2023-03-01T07:23:56;19.50;;;9.98;;
75054;SDS011;63636;44.746;10.488;2023-03-01T07:26:22;21.85;;;9.93;;
75054;SDS011;63636;44.746;10.488;2023-03-01T07:28:47;18.90;;;9.35;;
75054;SDS011;63636;44.746;10.488;2023-03-01T07:31:13;19.55;;;9.85;;
75054;SDS011;63636;44.746;10.488;2023-03-01T07:33:39;19.77;;;9.60;;
75054;SDS011;63636;44.746;10.488;2023-03-01T07:36:04;21.48;;;9.70;;
75054;SDS011;63636;44.746;10.488;2023-03-01T07:38:30;17.33;;;9.10;;
75054;SDS011;63636;44.746;10.488;2023-03-01T07:40:59;22.02;;;10.23;;
75054;SDS011;63636;44.746;10.488;2023-03-01T07:43:26;22.42;;;10.00;;
75054;SDS011;63636;44.746;10.488;2023-03-01T07:45:51;19.77;;;9.90;;
75054;SDS011;63636;44.746;10.488;2023-03-01T07:48:17;20.10;;;9.90;;
75054;SDS011;63636;44.746;10.488;2023-03-01T07:50:42;25.45;;;12.55;;
75054;SDS011;63636;44.746;10.488;2023-03-01T07:53:08;25.50;;;12.45;;
75054;SDS011;63636;44.746;10.488;2023-03-01T07:55:34;27.23;;;13.05;;
75054;SDS011;63636;44.746;10.488;2023-03-01T07:57:59;25.45;;;12.77;;
75054;SDS011;63636;44.746;10.488;2023-03-01T08:00:25;25.17;;;13.27;;
75054;SDS011;63636;44.746;10.488;2023-03-01T08:02:50;26.50;;;13.45;;
75054;SDS011;63636;44.746;10.488;2023-03-01T08:05:16;29.65;;;13.55;;
75054;SDS011;63636;44.746;10.488;2023-03-01T08:07:41;26.58;;;12.88;;
75054;SDS011;63636;44.746;10.488;2023-03-01T08:10:07;24.88;;;13.07;;
75054;SDS011;63636;44.746;10.488;2023-03-01T08:12:33;28.10;;;12.98;;
75054;SDS011;63636;44.746;10.488;2023-03-01T08:14:59;28.33;;;13.23;;
75054;SDS011;63636;44.746;10.488;2023-03-01T08:17:24;26.15;;;12.98;;
75054;SDS011;63636;44.746;10.488;2023-03-01T08:19:50;27.13;;;13.38;;
75054;SDS011;63636;44.746;10.488;2023-03-01T08:22:15;28.23;;;13.45;;
75054;SDS011;63636;44.746;10.488;2023-03-01T08:24:40;25.30;;;12.98;;
75054;SDS011;63636;44.746;10.488;2023-03-01T08:27:06;27.20;;;12.75;;
75054;SDS011;63636;44.746;10.488;2023-03-01T08:29:32;29.33;;;13.88;;
75054;SDS011;63636;44.746;10.488;2023-03-01T08:31:58;27.10;;;12.95;;
75054;SDS011;63636;44.746;10.488;2023-03-01T08:34:24;28.40;;;13.55;;
75054;SDS011;63636;44.746;10.488;2023-03-01T08:36:50;26.27;;;13.40;;
75054;SDS011;63636;44.746;10.488;2023-03-01T08:39:17;28.35;;;14.02;;
75054;SDS011;63636;44.746;10.488;2023-03-01T08:41:44;30.58;;;13.75;;
75054;SDS011;63636;44.746;10.488;2023-03-01T08:44:10;27.55;;;12.98;;
75054;SDS011;63636;44.746;10.488;2023-03-01T08:46:37;27.10;;;13.23;;
75054;SDS011;63636;44.746;10.488;2023-03-01T08:49:06;26.88;;;12.90;;
75054;SDS011;63636;44.746;10.488;2023-03-01T08:51:32;27.35;;;12.77;;
75054;SDS011;63636;44.746;10.488;2023-03-01T08:54:11;29.55;;;13.60;;
75054;SDS011;63636;44.746;10.488;2023-03-01T08:56:38;23.33;;;12.55;;
75054;SDS011;63636;44.746;10.488;2023-03-01T08:59:03;28.35;;;12.95;;
75054;SDS011;63636;44.746;10.488;2023-03-01T09:01:29;24.75;;;12.18;;
75054;SDS011;63636;44.746;10.488;2023-03-01T09:03:54;26.58;;;12.45;;
75054;SDS011;63636;44.746;10.488;2023-03-01T09:06:20;25.10;;;11.93;;
75054;SDS011;63636;44.746;10.488;2023-03-01T09:08:46;25.90;;;12.43;;
75054;SDS011;63636;44.746;10.488;2023-03-01T09:11:13;26.48;;;12.30;;
75054;SDS011;63636;44.746;10.488;2023-03-01T09:13:40;24.42;;;12.25;;
75054;SDS011;63636;44.746;10.488;2023-03-01T09:16:06;23.90;;;11.98;;
75054;SDS011;63636;44.746;10.488;2023-03-01T09:18:32;23.88;;;11.35;;
75054;SDS011;63636;44.746;10.488;2023-03-01T09:21:04;24.33;;;11.90;;
75054;SDS011;63636;44.746;10.488;2023-03-01T09:23:34;23.30;;;11.60;;
75054;SDS011;63636;44.746;10.488;2023-03-01T09:26:00;27.70;;;12.70;;
75054;SDS011;63636;44.746;10.488;2023-03-01T09:28:25;28.35;;;12.90;;
75054;SDS011;63636;44.746;10.488;2023-03-01T09:30:51;24.38;;;12.38;;
75054;SDS011;63636;44.746;10.488;2023-03-01T09:33:16;23.80;;;12.70;;
75054;SDS011;63636;44.746;10.488;2023-03-01T09:35:42;25.13;;;12.45;;
75054;SDS011;63636;44.746;10.488;2023-03-01T09:38:12;25.80;;;13.52;;
75054;SDS011;63636;44.746;10.488;2023-03-01T09:40:42;27.23;;;12.63;;
75054;SDS011;63636;44.746;10.488;2023-03-01T09:44:10;25.83;;;12.50;;
75054;SDS011;63636;44.746;10.488;2023-03-01T09:46:05;27.80;;;13.52;;
75054;SDS011;63636;44.746;10.488;2023-03-01T09:48:33;29.00;;;13.65;;
75054;SDS011;63636;44.746;10.488;2023-03-01T09:51:02;25.38;;;13.38;;
75054;SDS011;63636;44.746;10.488;2023-03-01T09:53:32;26.85;;;13.30;;
75054;SDS011;63636;44.746;10.488;2023-03-01T09:56:05;28.55;;;13.32;;
75054;SDS011;63636;44.746;10.488;2023-03-01T09:58:34;25.55;;;12.93;;
75054;SDS011;63636;44.746;10.488;2023-03-01T10:01:04;25.98;;;12.82;;
75054;SDS011;63636;44.746;10.488;2023-03-01T10:03:36;26.85;;;12.98;;
75054;SDS011;63636;44.746;10.488;2023-03-01T10:06:04;30.85;;;14.13;;
75054;SDS011;63636;44.746;10.488;2023-03-01T10:11:36;28.10;;;13.18;;
75054;SDS011;63636;44.746;10.488;2023-03-01T10:16:38;25.83;;;12.48;;
75054;SDS011;63636;44.746;10.488;2023-03-01T10:19:05;25.30;;;12.05;;
75054;SDS011;63636;44.746;10.488;2023-03-01T10:21:31;25.13;;;12.02;;
75054;SDS011;63636;44.746;10.488;2023-03-01T10:24:13;22.63;;;11.05;;
75054;SDS011;63636;44.746;10.488;2023-03-01T10:26:55;23.60;;;11.15;;
75054;SDS011;63636;44.746;10.488;2023-03-01T10:29:26;23.95;;;11.60;;
75054;SDS011;63636;44.746;10.488;2023-03-01T10:31:55;23.60;;;11.75;;
75054;SDS011;63636;44.746;10.488;2023-03-01T10:34:31;26.98;;;12.13;;
75054;SDS011;63636;44.746;10.488;2023-03-01T10:36:58;24.25;;;11.32;;
75054;SDS011;63636;44.746;10.488;2023-03-01T10:39:26;23.10;;;10.50;;
75054;SDS011;63636;44.746;10.488;2023-03-01T10:44:37;22.23;;;10.55;;
75054;SDS011;63636;44.746;10.488;2023-03-01T10:47:03;23.80;;;10.80;;
75054;SDS011;63636;44.746;10.488;2023-03-01T10:49:29;22.80;;;11.05;;
75054;SDS011;63636;44.746;10.488;2023-03-01T10:51:55;24.92;;;10.77;;
75054;SDS011;63636;44.746;10.488;2023-03-01T10:54:22;20.88;;;10.70;;
75054;SDS011;63636;44.746;10.488;2023-03-01T10:56:51;23.60;;;10.68;;
75054;SDS011;63636;44.746;10.488;2023-03-01T10:59:26;19.95;;;10.35;;
75054;SDS011;63636;44.746;10.488;2023-03-01T11:02:37;22.60;;;11.30;;
75054;SDS011;63636;44.746;10.488;2023-03-01T11:04:38;19.08;;;9.95;;
75054;SDS011;63636;44.746;10.488;2023-03-01T11:07:03;20.90;;;10.68;;
75054;SDS011;63636;44.746;10.488;2023-03-01T11:09:32;21.42;;;10.20;;
75054;SDS011;63636;44.746;10.488;2023-03-01T11:12:03;21.85;;;10.50;;
75054;SDS011;63636;44.746;10.488;2023-03-01T11:14:35;23.38;;;11.40;;
75054;SDS011;63636;44.746;10.488;2023-03-01T11:17:03;19.42;;;9.75;;
75054;SDS011;63636;44.746;10.488;2023-03-01T11:19:29;23.00;;;10.13;;
75054;SDS011;63636;44.746;10.488;2023-03-01T11:24:29;19.50;;;9.90;;
75054;SDS011;63636;44.746;10.488;2023-03-01T11:26:55;18.92;;;9.57;;
75054;SDS011;63636;44.746;10.488;2023-03-01T11:29:32;20.33;;;9.48;;
75054;SDS011;63636;44.746;10.488;2023-03-01T11:32:01;20.45;;;10.20;;
75054;SDS011;63636;44.746;10.488;2023-03-01T11:42:31;24.88;;;11.77;;
75054;SDS011;63636;44.746;10.488;2023-03-01T11:45:02;25.52;;;11.95;;
75054;SDS011;63636;44.746;10.488;2023-03-01T11:50:05;29.52;;;14.05;;
75054;SDS011;63636;44.746;10.488;2023-03-01T11:55:12;27.25;;;12.98;;
75054;SDS011;63636;44.746;10.488;2023-03-01T11:58:04;27.10;;;13.57;;
75054;SDS011;63636;44.746;10.488;2023-03-01T12:03:16;35.92;;;14.88;;
75054;SDS011;63636;44.746;10.488;2023-03-01T12:08:33;30.42;;;14.40;;
75054;SDS011;63636;44.746;10.488;2023-03-01T12:26:16;28.02;;;12.20;;
75054;SDS011;63636;44.746;10.488;2023-03-01T12:28:48;28.88;;;12.98;;
75054;SDS011;63636;44.746;10.488;2023-03-01T12:31:29;29.27;;;13.02;;
75054;SDS011;63636;44.746;10.488;2023-03-01T12:38:50;30.73;;;13.07;;
75054;SDS011;63636;44.746;10.488;2023-03-01T12:41:40;32.90;;;14.00;;
75054;SDS011;63636;44.746;10.488;2023-03-01T12:46:47;32.90;;;14.15;;
75054;SDS011;63636;44.746;10.488;2023-03-01T12:49:25;31.52;;;13.55;;
75054;SDS011;63636;44.746;10.488;2023-03-01T12:52:02;27.92;;;12.57;;
75054;SDS011;63636;44.746;10.488;2023-03-01T12:54:35;33.65;;;14.55;;
75054;SDS011;63636;44.746;10.488;2023-03-01T12:57:03;31.95;;;13.70;;
75054;SDS011;63636;44.746;10.488;2023-03-01T13:04:47;30.58;;;13.70;;
75054;SDS011;63636;44.746;10.488;2023-03-01T13:07:19;30.35;;;14.05;;
75054;SDS011;63636;44.746;10.488;2023-03-01T13:14:56;34.85;;;15.20;;
75054;SDS011;63636;44.746;10.488;2023-03-01T13:17:30;29.27;;;13.82;;
75054;SDS011;63636;44.746;10.488;2023-03-01T13:19:57;34.40;;;14.82;;
75054;SDS011;63636;44.746;10.488;2023-03-01T13:22:30;33.95;;;15.65;;
75054;SDS011;63636;44.746;10.488;2023-03-01T13:25:30;31.50;;;14.27;;
75054;SDS011;63636;44.746;10.488;2023-03-01T13:27:48;34.92;;;14.23;;
75054;SDS011;63636;44.746;10.488;2023-03-01T13:35:43;36.05;;;15.85;;
75054;SDS011;63636;44.746;10.488;2023-03-01T13:43:34;33.15;;;14.80;;
75054;SDS011;63636;44.746;10.488;2023-03-01T13:46:16;31.10;;;14.43;;
75054;SDS011;63636;44.746;10.488;2023-03-01T13:48:43;31.23;;;14.02;;
75054;SDS011;63636;44.746;10.488;2023-03-01T13:51:10;31.83;;;13.57;;
75054;SDS011;63636;44.746;10.488;2023-03-01T13:53:40;31.00;;;13.98;;
75054;SDS011;63636;44.746;10.488;2023-03-01T13:56:07;32.20;;;14.73;;
75054;SDS011;63636;44.746;10.488;2023-03-01T13:58:33;33.97;;;15.18;;
75054;SDS011;63636;44.746;10.488;2023-03-01T14:01:26;39.58;;;15.82;;
75054;SDS011;63636;44.746;10.488;2023-03-01T14:03:52;36.67;;;15.05;;
75054;SDS011;63636;44.746;10.488;2023-03-01T14:06:28;35.50;;;15.27;;
75054;SDS011;63636;44.746;10.488;2023-03-01T14:09:03;32.53;;;14.55;;
75054;SDS011;63636;44.746;10.488;2023-03-01T14:19:18;36.03;;;14.88;;
75054;SDS011;63636;44.746;10.488;2023-03-01T14:21:46;29.98;;;13.85;;
75054;SDS011;63636;44.746;10.488;2023-03-01T14:24:20;32.33;;;14.73;;
75054;SDS011;63636;44.746;10.488;2023-03-01T14:26:47;30.65;;;13.82;;
75054;SDS011;63636;44.746;10.488;2023-03-01T14:29:27;35.00;;;14.27;;
75054;SDS011;63636;44.746;10.488;2023-03-01T14:31:53;32.00;;;14.38;;
75054;SDS011;63636;44.746;10.488;2023-03-01T14:34:23;33.97;;;13.65;;
75054;SDS011;63636;44.746;10.488;2023-03-01T14:36:48;32.80;;;14.70;;
75054;SDS011;63636;44.746;10.488;2023-03-01T14:39:18;28.38;;;13.57;;
75054;SDS011;63636;44.746;10.488;2023-03-01T14:41:45;31.95;;;14.32;;
75054;SDS011;63636;44.746;10.488;2023-03-01T14:44:21;30.95;;;14.02;;
75054;SDS011;63636;44.746;10.488;2023-03-01T14:46:51;31.80;;;14.20;;
75054;SDS011;63636;44.746;10.488;2023-03-01T14:49:20;31.08;;;13.70;;
75054;SDS011;63636;44.746;10.488;2023-03-01T14:51:52;29.73;;;13.13;;
75054;SDS011;63636;44.746;10.488;2023-03-01T14:56:47;28.00;;;12.55;;
75054;SDS011;63636;44.746;10.488;2023-03-01T14:59:13;28.15;;;13.05;;
75054;SDS011;63636;44.746;10.488;2023-03-01T15:01:39;25.75;;;12.63;;
75054;SDS011;63636;44.746;10.488;2023-03-01T15:04:05;26.63;;;12.25;;
75054;SDS011;63636;44.746;10.488;2023-03-01T15:06:31;25.33;;;12.43;;
75054;SDS011;63636;44.746;10.488;2023-03-01T15:08:56;28.15;;;12.48;;
75054;SDS011;63636;44.746;10.488;2023-03-01T15:11:30;29.05;;;12.52;;
75054;SDS011;63636;44.746;10.488;2023-03-01T15:13:56;30.15;;;13.90;;
75054;SDS011;63636;44.746;10.488;2023-03-01T15:18:51;30.13;;;14.48;;
75054;SDS011;63636;44.746;10.488;2023-03-01T15:23:47;30.60;;;14.35;;
75054;SDS011;63636;44.746;10.488;2023-03-01T15:26:20;31.25;;;14.82;;
75054;SDS011;63636;44.746;10.488;2023-03-01T15:28:52;28.45;;;13.40;;
75054;SDS011;63636;44.746;10.488;2023-03-01T15:31:21;31.10;;;13.73;;
75054;SDS011;63636;44.746;10.488;2023-03-01T15:33:47;28.73;;;14.05;;
75054;SDS011;63636;44.746;10.488;2023-03-01T15:41:55;30.85;;;14.23;;
75054;SDS011;63636;44.746;10.488;2023-03-01T15:44:27;32.65;;;14.45;;
75054;SDS011;63636;44.746;10.488;2023-03-01T15:46:53;29.30;;;14.68;;
75054;SDS011;63636;44.746;10.488;2023-03-01T15:51:44;31.25;;;14.45;;
75054;SDS011;63636;44.746;10.488;2023-03-01T15:54:16;30.38;;;15.13;;
75054;SDS011;63636;44.746;10.488;2023-03-01T15:56:42;30.05;;;14.38;;
75054;SDS011;63636;44.746;10.488;2023-03-01T15:59:09;31.80;;;14.27;;
75054;SDS011;63636;44.746;10.488;2023-03-01T16:01:37;34.28;;;14.82;;
75054;SDS011;63636;44.746;10.488;2023-03-01T16:04:02;33.22;;;14.88;;
75054;SDS011;63636;44.746;10.488;2023-03-01T16:06:28;30.60;;;14.43;;
75054;SDS011;63636;44.746;10.488;2023-03-01T16:08:53;30.40;;;14.23;;